createdAt,value
2023-03-17T00:01:35.054Z,20.20
2023-03-17T00:04:05.853Z,20.02
2023-03-17T00:06:36.749Z,19.75
2023-03-17T00:09:09.191Z,20.24
2023-03-17T00:11:39.617Z,19.91
2023-03-17T00:14:10.699Z,20.24
2023-03-17T00:16:44.457Z,19.91
2023-03-17T00:19:22.181Z,19.60
2023-03-17T00:21:53.280Z,19.96
2023-03-17T00:24:23.905Z,19.72
2023-03-17T00:26:54.833Z,20.11
2023-03-17T00:29:27.043Z,19.77
2023-03-17T00:31:59.937Z,20.12
2023-03-17T00:34:31.321Z,20.44
2023-03-17T00:37:03.626Z,20.55
2023-03-17T00:39:34.868Z,20.55
2023-03-17T00:42:09.266Z,21.17
2023-03-17T00:44:42.276Z,21.00
2023-03-17T00:47:14.754Z,21.06
2023-03-17T00:49:45.385Z,21.14
2023-03-17T00:52:15.792Z,21.75
2023-03-17T00:54:46.837Z,21.63
2023-03-17T00:57:18.024Z,21.77
2023-03-17T00:59:48.509Z,21.35
2023-03-17T01:02:22.686Z,21.42
2023-03-17T01:05:05.566Z,21.44
2023-03-17T01:07:38.726Z,21.43
2023-03-17T01:10:20.734Z,21.28
2023-03-17T01:12:54.040Z,21.03
2023-03-17T01:15:25.332Z,21.08
2023-03-17T01:17:55.786Z,21.12
2023-03-17T01:20:30.890Z,21.00
2023-03-17T01:23:03.158Z,20.84
2023-03-17T01:25:35.318Z,21.02
2023-03-17T01:28:06.172Z,21.08
2023-03-17T01:30:41.851Z,21.60
2023-03-17T01:33:14.740Z,21.20
2023-03-17T01:35:47.372Z,21.21
2023-03-17T01:38:17.830Z,21.08
2023-03-17T01:40:51.665Z,21.36
2023-03-17T01:43:32.204Z,21.07
2023-03-17T01:46:36.159Z,21.59
2023-03-17T01:49:25.451Z,21.33
2023-03-17T01:51:55.791Z,21.39
2023-03-17T01:54:48.131Z,21.08
2023-03-17T01:57:18.500Z,21.32
2023-03-17T01:59:57.721Z,21.47
2023-03-17T02:02:36.165Z,21.26
2023-03-17T02:05:11.215Z,21.51
2023-03-17T02:07:43.268Z,21.02
2023-03-17T02:10:16.122Z,21.06
2023-03-17T02:12:49.066Z,21.14
2023-03-17T02:15:19.447Z,20.99
2023-03-17T02:17:50.186Z,20.62
2023-03-17T02:20:20.491Z,20.65
2023-03-17T02:22:54.381Z,20.84
2023-03-17T02:25:27.046Z,21.76
2023-03-17T02:28:03.424Z,21.49
2023-03-17T02:30:35.154Z,20.50
2023-03-17T02:33:06.097Z,21.13
2023-03-17T02:35:36.966Z,20.88
2023-03-17T02:38:08.202Z,20.32
2023-03-17T02:40:38.664Z,20.24
2023-03-17T02:43:09.167Z,19.89
2023-03-17T02:45:39.554Z,20.28
2023-03-17T02:48:10.720Z,19.97
2023-03-17T02:50:41.384Z,19.47
2023-03-17T02:53:12.049Z,19.09
2023-03-17T02:55:42.788Z,19.62
2023-03-17T02:58:13.238Z,19.81
2023-03-17T03:00:44.098Z,19.22
2023-03-17T03:03:14.534Z,19.31
2023-03-17T03:05:44.927Z,19.46
2023-03-17T03:08:15.963Z,19.15
2023-03-17T03:10:46.224Z,19.41
2023-03-17T03:13:17.301Z,18.62
2023-03-17T03:15:47.814Z,19.15
2023-03-17T03:18:18.261Z,18.99
2023-03-17T03:20:49.622Z,18.65
2023-03-17T03:23:20.282Z,18.59
2023-03-17T03:25:50.667Z,18.87
2023-03-17T03:28:21.552Z,18.99
2023-03-17T03:30:52.109Z,19.20
2023-03-17T03:33:23.172Z,18.53
2023-03-17T03:35:54.423Z,18.35
2023-03-17T03:38:24.845Z,19.56
2023-03-17T03:40:56.068Z,19.14
2023-03-17T03:43:27.296Z,19.00
2023-03-17T03:45:57.732Z,19.09
2023-03-17T03:48:28.281Z,18.99
2023-03-17T03:51:01.032Z,19.33
2023-03-17T03:53:32.651Z,18.98
2023-03-17T03:56:03.474Z,19.30
2023-03-17T03:58:33.919Z,18.97
2023-03-17T04:01:09.040Z,18.97
2023-03-17T04:03:40.961Z,18.77
2023-03-17T04:06:11.456Z,19.08
2023-03-17T04:08:42.106Z,19.48
2023-03-17T04:11:12.588Z,19.40
2023-03-17T04:13:43.115Z,19.60
2023-03-17T04:16:14.138Z,19.50
2023-03-17T04:18:44.651Z,19.93
2023-03-17T04:21:15.378Z,19.73
2023-03-17T04:23:45.907Z,20.21
2023-03-17T04:26:18.936Z,20.37
2023-03-17T04:28:49.854Z,19.96
2023-03-17T04:31:20.289Z,20.09
2023-03-17T04:33:50.876Z,20.56
2023-03-17T04:36:24.687Z,20.14
2023-03-17T04:38:55.419Z,19.67
2023-03-17T04:41:26.198Z,20.54
2023-03-17T04:43:56.516Z,20.80
2023-03-17T04:46:27.259Z,20.37
2023-03-17T04:48:57.926Z,20.08
2023-03-17T04:51:28.769Z,20.30
2023-03-17T04:53:59.447Z,19.61
2023-03-17T04:56:31.703Z,19.93
2023-03-17T04:59:02.802Z,20.10
2023-03-17T05:01:33.960Z,19.52
2023-03-17T05:04:04.282Z,20.23
2023-03-17T05:06:34.835Z,19.87
2023-03-17T05:09:06.124Z,20.35
2023-03-17T05:11:37.775Z,20.59
2023-03-17T05:14:08.163Z,20.80
2023-03-17T05:16:38.576Z,20.60
2023-03-17T05:19:09.219Z,19.85
2023-03-17T05:21:39.504Z,20.28
2023-03-17T05:24:10.487Z,19.45
2023-03-17T05:26:42.586Z,19.46
2023-03-17T05:29:12.934Z,20.41
2023-03-17T05:31:43.991Z,20.52
2023-03-17T05:34:14.649Z,20.02
2023-03-17T05:36:46.139Z,20.63
2023-03-17T05:39:16.582Z,19.62
2023-03-17T05:41:47.157Z,20.62
2023-03-17T05:44:18.014Z,20.59
2023-03-17T05:46:49.056Z,20.31
2023-03-17T05:49:20.306Z,20.44
2023-03-17T05:51:50.746Z,20.01
2023-03-17T05:54:21.399Z,19.59
2023-03-17T05:56:52.172Z,19.96
2023-03-17T05:59:23.773Z,20.50
2023-03-17T06:01:54.234Z,19.54
2023-03-17T06:04:24.405Z,18.68
2023-03-17T06:06:54.734Z,18.78
2023-03-17T06:09:25.328Z,17.74
2023-03-17T06:11:55.624Z,17.35
2023-03-17T06:14:27.123Z,17.90
2023-03-17T06:16:57.745Z,16.76
2023-03-17T06:19:28.227Z,16.36
2023-03-17T06:21:58.697Z,15.91
2023-03-17T06:24:29.115Z,16.03
2023-03-17T06:26:59.446Z,15.79
2023-03-17T06:29:31.643Z,15.31
2023-03-17T06:32:18.933Z,16.19
2023-03-17T06:34:50.163Z,15.49
2023-03-17T06:37:20.897Z,15.26
2023-03-17T06:39:51.498Z,14.64
2023-03-17T06:42:22.656Z,14.76
2023-03-17T06:44:54.200Z,14.64
2023-03-17T06:47:26.039Z,15.47
2023-03-17T06:49:59.216Z,15.45
2023-03-17T06:52:30.188Z,14.56
2023-03-17T06:55:00.677Z,15.31
2023-03-17T06:57:31.003Z,14.63
2023-03-17T07:00:01.446Z,14.90
2023-03-17T07:02:31.887Z,15.13
2023-03-17T07:05:02.896Z,15.14
2023-03-17T07:07:33.322Z,14.91
2023-03-17T07:10:04.783Z,15.07
2023-03-17T07:12:35.832Z,14.64
2023-03-17T07:15:07.412Z,14.14
2023-03-17T07:17:38.285Z,14.42
2023-03-17T07:20:09.282Z,14.15
2023-03-17T07:22:39.646Z,14.57
2023-03-17T07:25:11.281Z,15.34
2023-03-17T07:27:41.747Z,14.30
2023-03-17T07:30:14.390Z,14.34
2023-03-17T07:32:44.894Z,14.64
2023-03-17T07:35:17.647Z,14.75
2023-03-17T07:37:48.883Z,14.76
2023-03-17T07:40:20.209Z,14.55
2023-03-17T07:42:51.489Z,14.30
2023-03-17T07:45:22.061Z,14.76
2023-03-17T07:47:53.362Z,13.36
2023-03-17T07:50:24.746Z,14.31
2023-03-17T07:52:55.050Z,14.28
2023-03-17T07:55:25.808Z,13.92
2023-03-17T07:57:56.367Z,14.66
2023-03-17T08:00:28.133Z,13.59
2023-03-17T08:03:09.287Z,13.16
2023-03-17T08:05:41.239Z,14.62
2023-03-17T08:08:12.306Z,14.42
2023-03-17T08:10:42.739Z,14.49
2023-03-17T08:13:13.230Z,14.29
2023-03-17T08:15:44.369Z,14.40
2023-03-17T08:18:14.956Z,14.47
2023-03-17T08:20:46.438Z,15.11
2023-03-17T08:23:17.095Z,15.14
2023-03-17T08:25:48.267Z,15.47
2023-03-17T08:28:19.357Z,14.60
2023-03-17T08:30:50.921Z,15.27
2023-03-17T08:33:21.354Z,15.70
2023-03-17T08:35:52.329Z,14.87
2023-03-17T08:38:23.293Z,15.26
2023-03-17T08:40:53.743Z,15.32
2023-03-17T08:43:25.447Z,15.26
2023-03-17T08:46:00.702Z,15.25
2023-03-17T08:48:31.985Z,15.33
2023-03-17T08:51:02.614Z,15.53
2023-03-17T08:53:34.010Z,15.38
2023-03-17T08:56:06.267Z,15.70
2023-03-17T08:58:41.379Z,15.41
2023-03-17T09:01:15.193Z,16.46
2023-03-17T09:03:47.140Z,16.44
2023-03-17T09:06:18.121Z,15.36
2023-03-17T09:08:52.397Z,16.67
2023-03-17T09:11:25.163Z,15.59
2023-03-17T09:13:57.150Z,16.84
2023-03-17T09:16:29.980Z,16.54
2023-03-17T09:19:00.692Z,16.16
2023-03-17T09:21:31.315Z,16.15
2023-03-17T09:24:02.636Z,16.66
2023-03-17T09:26:33.494Z,16.85
2023-03-17T09:29:04.703Z,16.64
2023-03-17T09:31:38.086Z,16.90
2023-03-17T09:34:07.906Z,15.76
2023-03-17T09:36:39.069Z,16.58
2023-03-17T09:39:10.324Z,15.78
2023-03-17T09:41:59.201Z,16.99
2023-03-17T09:44:50.771Z,16.06
2023-03-17T09:47:52.382Z,16.22
2023-03-17T09:50:31.001Z,16.65
2023-03-17T09:53:04.144Z,17.27
2023-03-17T09:55:36.714Z,16.97
2023-03-17T09:58:07.249Z,16.87
2023-03-17T10:00:37.418Z,16.71
2023-03-17T10:03:13.596Z,17.16
2023-03-17T10:05:44.013Z,16.15
2023-03-17T10:08:29.931Z,16.45
2023-03-17T10:11:05.215Z,17.25
2023-03-17T10:13:38.615Z,17.17
2023-03-17T10:16:13.812Z,16.47
2023-03-17T10:18:59.320Z,17.18
2023-03-17T10:21:37.204Z,16.76
2023-03-17T10:24:08.468Z,16.95
2023-03-17T10:26:58.898Z,17.32
2023-03-17T10:29:30.359Z,16.67
2023-03-17T10:32:01.093Z,17.08
2023-03-17T10:34:37.751Z,17.53
2023-03-17T10:37:14.195Z,16.80
2023-03-17T10:39:51.792Z,17.18
2023-03-17T10:42:29.320Z,17.33
2023-03-17T10:45:07.097Z,17.50
2023-03-17T10:47:41.182Z,17.55
2023-03-17T10:50:27.639Z,17.29
2023-03-17T10:53:29.350Z,17.01
2023-03-17T10:56:11.177Z,17.09
2023-03-17T10:58:51.591Z,17.52
2023-03-17T11:01:37.073Z,17.59
2023-03-17T11:04:38.452Z,17.83
2023-03-17T11:07:22.841Z,17.21
2023-03-17T11:09:59.375Z,17.95
2023-03-17T11:12:54.875Z,17.53
2023-03-17T11:15:25.622Z,17.88
2023-03-17T11:18:04.850Z,17.35
2023-03-17T11:20:52.891Z,17.31
2023-03-17T11:23:34.397Z,17.73
2023-03-17T11:26:16.436Z,17.34
2023-03-17T11:29:10.708Z,18.16
2023-03-17T11:31:49.533Z,17.82
2023-03-17T11:34:45.409Z,17.53
2023-03-17T11:37:34.626Z,18.00
2023-03-17T11:40:35.532Z,18.15
2023-03-17T11:43:38.958Z,18.00
2023-03-17T11:46:21.238Z,17.69
2023-03-17T11:49:02.206Z,18.42
2023-03-17T11:51:58.159Z,18.26
2023-03-17T11:54:48.790Z,18.08
2023-03-17T11:57:42.200Z,18.31
2023-03-17T12:00:19.496Z,18.01
2023-03-17T12:03:32.682Z,18.38
2023-03-17T12:06:10.110Z,17.64
2023-03-17T12:08:51.010Z,17.56
2023-03-17T12:11:30.487Z,17.99
2023-03-17T12:14:08.325Z,18.34
2023-03-17T12:17:16.600Z,17.86
2023-03-17T12:20:10.789Z,18.56
2023-03-17T12:22:59.471Z,17.91
2023-03-17T12:26:01.308Z,18.13
2023-03-17T12:28:40.370Z,19.09
2023-03-17T12:31:19.884Z,17.86
2023-03-17T12:34:23.151Z,18.73
2023-03-17T12:36:55.692Z,18.32
2023-03-17T12:39:33.564Z,18.58
2023-03-17T12:42:30.690Z,18.12
2023-03-17T12:45:39.126Z,18.11
2023-03-17T12:48:25.152Z,18.19
2023-03-17T12:51:19.516Z,18.45
2023-03-17T12:53:52.185Z,18.40
2023-03-17T12:56:34.361Z,18.46
2023-03-17T12:59:11.765Z,18.53
2023-03-17T13:01:48.129Z,18.73
2023-03-17T13:04:26.467Z,18.48
2023-03-17T13:07:14.355Z,18.95
2023-03-17T13:09:50.495Z,19.00
2023-03-17T13:12:42.076Z,18.86
2023-03-17T13:15:37.424Z,18.71
2023-03-17T13:18:20.007Z,18.75
2023-03-17T13:21:00.792Z,18.84
2023-03-17T13:23:45.651Z,18.88
2023-03-17T13:26:21.470Z,19.15
2023-03-17T13:28:53.639Z,18.69
2023-03-17T13:31:33.062Z,18.77
2023-03-17T13:34:19.345Z,18.62
2023-03-17T13:37:27.880Z,18.84
2023-03-17T13:40:01.263Z,19.07
2023-03-17T13:43:03.703Z,18.84
2023-03-17T13:45:46.105Z,19.28
2023-03-17T13:48:31.217Z,18.89
2023-03-17T13:51:15.194Z,18.86
2023-03-17T13:53:57.994Z,19.01
2023-03-17T13:56:43.486Z,18.96
2023-03-17T13:59:14.564Z,18.86
2023-03-17T14:01:53.919Z,19.23
2023-03-17T14:04:29.655Z,18.80
2023-03-17T14:07:08.460Z,19.34
2023-03-17T14:09:45.160Z,18.61
2023-03-17T14:12:21.841Z,19.30
2023-03-17T14:15:08.283Z,19.15
2023-03-17T14:17:49.341Z,19.41
2023-03-17T14:20:20.425Z,19.16
2023-03-17T14:22:57.710Z,19.10
2023-03-17T14:25:48.464Z,19.29
2023-03-17T14:28:21.441Z,19.08
2023-03-17T14:30:58.472Z,19.22
2023-03-17T14:33:31.368Z,19.46
2023-03-17T14:36:04.258Z,19.47
2023-03-17T14:38:37.085Z,19.67
2023-03-17T14:41:19.150Z,19.48
2023-03-17T14:43:51.437Z,19.34
2023-03-17T14:46:40.170Z,19.43
2023-03-17T14:49:22.634Z,19.71
2023-03-17T14:52:00.743Z,19.56
2023-03-17T14:54:36.765Z,19.83
2023-03-17T14:57:17.223Z,19.75
2023-03-17T15:00:18.503Z,19.72
2023-03-17T15:03:00.972Z,19.65
2023-03-17T15:05:44.818Z,20.01
2023-03-17T15:08:44.893Z,19.66
2023-03-17T15:11:25.489Z,19.72
2023-03-17T15:14:17.880Z,19.81
2023-03-17T15:16:53.257Z,19.49
2023-03-17T15:19:46.894Z,19.82
2023-03-17T15:22:29.009Z,19.68
2023-03-17T15:25:28.905Z,19.81
2023-03-17T15:27:59.990Z,19.80
2023-03-17T15:30:44.384Z,19.54
2023-03-17T15:33:31.321Z,19.93
2023-03-17T15:36:02.121Z,19.95
2023-03-17T15:38:32.545Z,19.77
2023-03-17T15:41:02.926Z,19.95
2023-03-17T15:43:33.399Z,19.92
2023-03-17T15:46:08.412Z,20.12
2023-03-17T15:48:39.611Z,20.25
2023-03-17T15:51:12.032Z,19.68
2023-03-17T15:53:42.481Z,19.98
2023-03-17T15:56:22.243Z,20.10
2023-03-17T15:58:53.984Z,20.45
2023-03-17T16:01:27.307Z,20.13
2023-03-17T16:03:58.545Z,20.68
2023-03-17T16:06:29.029Z,20.49
2023-03-17T16:08:59.685Z,20.05
2023-03-17T16:11:33.416Z,20.96
2023-03-17T16:14:04.544Z,20.14
2023-03-17T16:16:45.029Z,20.27
2023-03-17T16:19:26.415Z,20.54
2023-03-17T16:21:57.025Z,20.30
2023-03-17T16:24:29.012Z,20.55
2023-03-17T16:26:59.437Z,20.38
2023-03-17T16:29:29.715Z,20.16
2023-03-17T16:32:00.257Z,20.44
2023-03-17T16:34:30.626Z,20.43
2023-03-17T16:37:01.028Z,20.56
2023-03-17T16:39:33.677Z,20.65
2023-03-17T16:42:05.646Z,20.44
2023-03-17T16:44:36.867Z,20.80
2023-03-17T16:47:07.660Z,20.36
2023-03-17T16:49:38.089Z,20.65
2023-03-17T16:52:08.573Z,20.67
2023-03-17T16:54:39.008Z,20.58
2023-03-17T16:57:11.707Z,20.66
2023-03-17T16:59:42.665Z,21.08
2023-03-17T17:02:18.368Z,20.79
2023-03-17T17:04:48.788Z,20.61
2023-03-17T17:07:19.184Z,20.65
2023-03-17T17:09:49.609Z,20.37
2023-03-17T17:12:19.821Z,20.84
2023-03-17T17:14:50.144Z,21.16
2023-03-17T17:17:20.353Z,20.76
2023-03-17T17:19:50.793Z,20.99
2023-03-17T17:22:21.134Z,20.78
2023-03-17T17:24:51.453Z,20.97
2023-03-17T17:27:21.994Z,21.00
2023-03-17T17:29:52.228Z,20.89
2023-03-17T17:32:25.288Z,21.09
2023-03-17T17:34:55.774Z,20.97
2023-03-17T17:37:26.321Z,20.94
2023-03-17T17:39:57.046Z,21.09
2023-03-17T17:42:27.814Z,21.00
2023-03-17T17:44:58.246Z,20.86
2023-03-17T17:47:32.312Z,20.81
2023-03-17T17:50:02.815Z,21.30
2023-03-17T17:52:33.309Z,21.21
2023-03-17T17:55:03.790Z,21.30
2023-03-17T17:57:34.155Z,21.39
2023-03-17T18:00:07.920Z,21.06
2023-03-17T18:02:41.181Z,21.30
2023-03-17T18:05:12.690Z,21.16
2023-03-17T18:07:43.452Z,20.85
2023-03-17T18:10:23.980Z,21.08
2023-03-17T18:12:55.118Z,21.32
2023-03-17T18:15:27.179Z,21.24
2023-03-17T18:17:57.921Z,21.22
2023-03-17T18:20:28.830Z,21.33
2023-03-17T18:22:59.511Z,21.42
2023-03-17T18:25:31.292Z,21.55
2023-03-17T18:28:02.960Z,21.36
2023-03-17T18:30:36.153Z,21.27
2023-03-17T18:33:18.408Z,21.45
2023-03-17T18:35:50.660Z,21.33
2023-03-17T18:38:21.184Z,21.48
2023-03-17T18:40:51.825Z,21.47
2023-03-17T18:43:22.091Z,21.33
2023-03-17T18:45:52.708Z,21.62
2023-03-17T18:48:23.321Z,21.66
2023-03-17T18:50:53.637Z,21.76
2023-03-17T18:53:24.353Z,21.39
2023-03-17T18:55:54.736Z,21.86
2023-03-17T18:58:25.467Z,21.22
2023-03-17T19:00:59.498Z,21.65
2023-03-17T19:03:31.245Z,21.89
2023-03-17T19:06:11.995Z,21.50
2023-03-17T19:08:42.967Z,21.74
2023-03-17T19:11:15.667Z,22.14
2023-03-17T19:13:47.171Z,22.16
2023-03-17T19:16:18.202Z,21.53
2023-03-17T19:18:48.575Z,21.93
2023-03-17T19:21:18.965Z,21.65
2023-03-17T19:23:49.631Z,22.09
2023-03-17T19:26:21.711Z,21.66
2023-03-17T19:28:52.299Z,21.87
2023-03-17T19:31:22.755Z,21.87
2023-03-17T19:33:53.269Z,22.04
2023-03-17T19:36:23.595Z,21.84
2023-03-17T19:38:53.971Z,21.65
2023-03-17T19:41:24.250Z,22.21
2023-03-17T19:43:54.646Z,21.96
2023-03-17T19:46:25.725Z,21.96
2023-03-17T19:48:58.115Z,22.01
2023-03-17T19:51:29.172Z,22.16
2023-03-17T19:53:59.509Z,22.33
2023-03-17T19:56:29.970Z,22.14
2023-03-17T19:59:00.882Z,22.03
2023-03-17T20:01:33.528Z,22.55
2023-03-17T20:04:03.858Z,22.14
2023-03-17T20:06:35.148Z,21.91
2023-03-17T20:09:05.908Z,21.90
2023-03-17T20:11:36.373Z,21.83
2023-03-17T20:14:07.688Z,22.38
2023-03-17T20:16:39.297Z,22.46
2023-03-17T20:19:10.679Z,22.51
2023-03-17T20:21:41.777Z,22.33
2023-03-17T20:24:16.078Z,22.21
2023-03-17T20:26:47.432Z,22.27
2023-03-17T20:29:19.196Z,22.05
2023-03-17T20:31:49.647Z,22.51
2023-03-17T20:34:20.109Z,22.50
2023-03-17T20:36:50.806Z,22.11
2023-03-17T20:39:23.811Z,22.31
2023-03-17T20:41:53.956Z,22.70
2023-03-17T20:44:25.583Z,22.15
2023-03-17T20:46:56.438Z,22.06
2023-03-17T20:49:26.826Z,22.92
2023-03-17T20:51:57.858Z,22.80
2023-03-17T20:54:28.540Z,22.67
2023-03-17T20:56:58.946Z,22.36
2023-03-17T20:59:29.996Z,22.39
2023-03-17T21:02:00.725Z,22.91
2023-03-17T21:04:31.694Z,22.86
2023-03-17T21:07:02.142Z,23.21
2023-03-17T21:09:32.582Z,23.23
2023-03-17T21:12:02.799Z,22.68
2023-03-17T21:14:33.598Z,22.98
2023-03-17T21:17:05.373Z,22.57
2023-03-17T21:19:37.557Z,22.94
2023-03-17T21:22:08.439Z,23.00
2023-03-17T21:24:41.365Z,23.39
2023-03-17T21:27:12.811Z,23.45
2023-03-17T21:29:44.022Z,23.11
2023-03-17T21:32:14.376Z,22.67
2023-03-17T21:34:45.499Z,22.51
2023-03-17T21:37:19.798Z,23.00
2023-03-17T21:39:50.393Z,23.29
2023-03-17T21:42:21.140Z,22.63
2023-03-17T21:44:53.616Z,22.95
2023-03-17T21:47:24.062Z,23.10
2023-03-17T21:49:54.272Z,23.20
2023-03-17T21:52:24.723Z,22.59
2023-03-17T21:54:56.288Z,23.42
2023-03-17T21:57:29.075Z,22.79
2023-03-17T21:59:59.528Z,22.52
2023-03-17T22:02:30.047Z,22.36
2023-03-17T22:05:00.949Z,22.54
2023-03-17T22:07:31.589Z,22.73
2023-03-17T22:10:02.717Z,22.47
2023-03-17T22:12:33.071Z,22.84
2023-03-17T22:15:03.855Z,22.76
2023-03-17T22:17:34.658Z,22.61
2023-03-17T22:20:08.189Z,22.40
2023-03-17T22:22:38.626Z,23.10
2023-03-17T22:25:09.968Z,23.25
2023-03-17T22:27:40.444Z,22.74
2023-03-17T22:30:12.500Z,23.33
2023-03-17T22:32:43.104Z,23.24
2023-03-17T22:35:14.725Z,23.17
2023-03-17T22:37:45.115Z,23.34
2023-03-17T22:40:16.336Z,22.82
2023-03-17T22:42:46.650Z,23.44
2023-03-17T22:45:17.967Z,23.49
2023-03-17T22:47:48.484Z,23.29
2023-03-17T22:50:20.270Z,23.07
2023-03-17T22:52:50.980Z,23.03
2023-03-17T22:55:21.960Z,23.19
2023-03-17T22:57:53.102Z,23.65
2023-03-17T23:00:24.475Z,23.60
2023-03-17T23:02:55.561Z,22.75
2023-03-17T23:05:27.220Z,23.50
2023-03-17T23:07:57.682Z,23.23
2023-03-17T23:10:28.927Z,23.15
2023-03-17T23:12:59.300Z,22.99
2023-03-17T23:15:29.652Z,23.72
2023-03-17T23:18:00.253Z,23.54
2023-03-17T23:20:30.833Z,23.30
2023-03-17T23:23:01.580Z,23.86
2023-03-17T23:25:32.492Z,22.92
2023-03-17T23:28:03.142Z,23.10
2023-03-17T23:30:34.422Z,23.23
2023-03-17T23:33:06.269Z,23.49
2023-03-17T23:35:37.425Z,23.54
2023-03-17T23:38:10.160Z,23.78
2023-03-17T23:40:41.291Z,23.40
2023-03-17T23:43:11.784Z,23.76
2023-03-17T23:45:43.141Z,23.73
2023-03-17T23:48:14.269Z,23.03
2023-03-17T23:50:45.679Z,22.87
2023-03-17T23:53:16.121Z,23.26
2023-03-17T23:55:46.944Z,23.22
2023-03-17T23:58:18.116Z,23.68
